sensor_id;sensor_type;location;lat;lon;timestamp;P1;P2;P0
80628;PMS5003;69983;42.370;-71.210;2023-06-26T00:00:43;100;78;
80628;PMS5003;69983;42.370;-71.210;2023-06-26T00:02:44;73;58;
80628;PMS5003;69983;42.370;-71.210;2023-06-26T00:04:44;83;72;
80628;PMS5003;69983;42.370;-71.210;2023-06-26T00:06:45;73;64;
80628;PMS5003;69983;42.370;-71.210;2023-06-26T00:08:44;82;64;
80628;PMS5003;69983;42.370;-71.210;2023-06-26T00:10:45;72;51;
80628;PMS5003;69983;42.370;-71.210;2023-06-26T00:12:45;62;48;
80628;PMS5003;69983;42.370;-71.210;2023-06-26T00:14:45;50;39;
80628;PMS5003;69983;42.370;-71.210;2023-06-26T00:16:45;47;36;
80628;PMS5003;69983;42.370;-71.210;2023-06-26T00:18:46;31;26;
80628;PMS5003;69983;42.370;-71.210;2023-06-26T00:20:46;29;24;
80628;PMS5003;69983;42.370;-71.210;2023-06-26T00:22:46;28;24;
80628;PMS5003;69983;42.370;-71.210;2023-06-26T00:24:47;27;21;
80628;PMS5003;69983;42.370;-71.210;2023-06-26T00:26:47;22;20;
80628;PMS5003;69983;42.370;-71.210;2023-06-26T00:28:51;21;17;
80628;PMS5003;69983;42.370;-71.210;2023-06-26T00:30:47;18;15;
80628;PMS5003;69983;42.370;-71.210;2023-06-26T00:32:47;18;14;
80628;PMS5003;69983;42.370;-71.210;2023-06-26T00:34:48;167;136;
80628;PMS5003;69983;42.370;-71.210;2023-06-26T00:36:49;123;91;
80628;PMS5003;69983;42.370;-71.210;2023-06-26T00:38:49;106;78;
80628;PMS5003;69983;42.370;-71.210;2023-06-26T00:40:50;653;555;
80628;PMS5003;69983;42.370;-71.210;2023-06-26T00:42:50;507;414;
80628;PMS5003;69983;42.370;-71.210;2023-06-26T00:44:51;414;316;
80628;PMS5003;69983;42.370;-71.210;2023-06-26T00:46:51;327;259;
80628;PMS5003;69983;42.370;-71.210;2023-06-26T00:50:52;148;127;
80628;PMS5003;69983;42.370;-71.210;2023-06-26T00:52:53;113;94;
80628;PMS5003;69983;42.370;-71.210;2023-06-26T00:54:53;78;66;
80628;PMS5003;69983;42.370;-71.210;2023-06-26T00:56:53;316;269;
80628;PMS5003;69983;42.370;-71.210;2023-06-26T00:58:53;408;307;
80628;PMS5003;69983;42.370;-71.210;2023-06-26T01:00:54;327;247;
80628;PMS5003;69983;42.370;-71.210;2023-06-26T01:02:55;346;234;
80628;PMS5003;69983;42.370;-71.210;2023-06-26T01:04:55;266;191;
80628;PMS5003;69983;42.370;-71.210;2023-06-26T01:06:56;326;265;
80628;PMS5003;69983;42.370;-71.210;2023-06-26T01:08:57;270;200;
80628;PMS5003;69983;42.370;-71.210;2023-06-26T01:10:57;264;185;
80628;PMS5003;69983;42.370;-71.210;2023-06-26T01:12:57;177;134;
80628;PMS5003;69983;42.370;-71.210;2023-06-26T01:14:58;174;116;
80628;PMS5003;69983;42.370;-71.210;2023-06-26T01:16:58;231;128;
80628;PMS5003;69983;42.370;-71.210;2023-06-26T01:18:58;204;127;
80628;PMS5003;69983;42.370;-71.210;2023-06-26T01:20:59;164;93;
80628;PMS5003;69983;42.370;-71.210;2023-06-26T01:23:03;116;82;
80628;PMS5003;69983;42.370;-71.210;2023-06-26T01:25:03;109;68;
80628;PMS5003;69983;42.370;-71.210;2023-06-26T01:27:00;74;45;
80628;PMS5003;69983;42.370;-71.210;2023-06-26T01:29:01;65;42;
80628;PMS5003;69983;42.370;-71.210;2023-06-26T01:31:02;53;40;
80628;PMS5003;69983;42.370;-71.210;2023-06-26T01:33:02;40;32;
80628;PMS5003;69983;42.370;-71.210;2023-06-26T01:35:02;36;29;
80628;PMS5003;69983;42.370;-71.210;2023-06-26T01:37:03;47;29;
80628;PMS5003;69983;42.370;-71.210;2023-06-26T01:39:03;320;252;
80628;PMS5003;69983;42.370;-71.210;2023-06-26T01:41:03;459;317;
80628;PMS5003;69983;42.370;-71.210;2023-06-26T01:43:05;329;238;
80628;PMS5003;69983;42.370;-71.210;2023-06-26T01:45:07;350;238;
80628;PMS5003;69983;42.370;-71.210;2023-06-26T01:47:05;252;172;
80628;PMS5003;69983;42.370;-71.210;2023-06-26T01:49:07;313;240;
80628;PMS5003;69983;42.370;-71.210;2023-06-26T01:51:06;382;249;
80628;PMS5003;69983;42.370;-71.210;2023-06-26T01:53:07;296;193;
80628;PMS5003;69983;42.370;-71.210;2023-06-26T01:55:12;262;167;
80628;PMS5003;69983;42.370;-71.210;2023-06-26T01:57:07;192;127;
80628;PMS5003;69983;42.370;-71.210;2023-06-26T01:59:07;158;105;
80628;PMS5003;69983;42.370;-71.210;2023-06-26T02:01:08;180;119;
80628;PMS5003;69983;42.370;-71.210;2023-06-26T02:03:08;130;76;
80628;PMS5003;69983;42.370;-71.210;2023-06-26T02:05:09;87;64;
80628;PMS5003;69983;42.370;-71.210;2023-06-26T02:07:09;90;58;
80628;PMS5003;69983;42.370;-71.210;2023-06-26T02:09:09;64;43;
80628;PMS5003;69983;42.370;-71.210;2023-06-26T02:11:09;50;39;
80628;PMS5003;69983;42.370;-71.210;2023-06-26T02:13:10;39;27;
80628;PMS5003;69983;42.370;-71.210;2023-06-26T02:15:10;37;23;
80628;PMS5003;69983;42.370;-71.210;2023-06-26T02:17:11;26;21;
80628;PMS5003;69983;42.370;-71.210;2023-06-26T02:19:11;23;16;
80628;PMS5003;69983;42.370;-71.210;2023-06-26T02:21:12;22;17;
80628;PMS5003;69983;42.370;-71.210;2023-06-26T02:23:12;16;14;
80628;PMS5003;69983;42.370;-71.210;2023-06-26T02:25:13;16;12;
80628;PMS5003;69983;42.370;-71.210;2023-06-26T02:27:13;182;158;
80628;PMS5003;69983;42.370;-71.210;2023-06-26T02:29:14;342;282;
80628;PMS5003;69983;42.370;-71.210;2023-06-26T02:31:15;322;248;
80628;PMS5003;69983;42.370;-71.210;2023-06-26T02:33:15;359;274;
80628;PMS5003;69983;42.370;-71.210;2023-06-26T02:35:16;335;254;
80628;PMS5003;69983;42.370;-71.210;2023-06-26T02:37:16;214;162;
80628;PMS5003;69983;42.370;-71.210;2023-06-26T02:39:16;137;109;
80628;PMS5003;69983;42.370;-71.210;2023-06-26T02:41:17;142;98;
80628;PMS5003;69983;42.370;-71.210;2023-06-26T02:43:18;131;97;
80628;PMS5003;69983;42.370;-71.210;2023-06-26T02:45:18;146;98;
80628;PMS5003;69983;42.370;-71.210;2023-06-26T02:47:19;319;249;
80628;PMS5003;69983;42.370;-71.210;2023-06-26T02:49:19;604;495;
80628;PMS5003;69983;42.370;-71.210;2023-06-26T02:51:20;389;317;
80628;PMS5003;69983;42.370;-71.210;2023-06-26T02:53:20;288;229;
80628;PMS5003;69983;42.370;-71.210;2023-06-26T02:55:20;207;175;
80628;PMS5003;69983;42.370;-71.210;2023-06-26T02:57:21;157;128;
80628;PMS5003;69983;42.370;-71.210;2023-06-26T02:59:22;127;106;
80628;PMS5003;69983;42.370;-71.210;2023-06-26T03:01:22;95;75;
80628;PMS5003;69983;42.370;-71.210;2023-06-26T03:03:22;79;65;
80628;PMS5003;69983;42.370;-71.210;2023-06-26T03:05:23;66;56;
80628;PMS5003;69983;42.370;-71.210;2023-06-26T03:07:24;64;53;
80628;PMS5003;69983;42.370;-71.210;2023-06-26T03:09:24;47;39;
80628;PMS5003;69983;42.370;-71.210;2023-06-26T03:11:24;50;41;
80628;PMS5003;69983;42.370;-71.210;2023-06-26T03:13:25;47;36;
80628;PMS5003;69983;42.370;-71.210;2023-06-26T03:15:25;34;30;
80628;PMS5003;69983;42.370;-71.210;2023-06-26T03:17:26;31;24;
80628;PMS5003;69983;42.370;-71.210;2023-06-26T03:19:26;28;21;
80628;PMS5003;69983;42.370;-71.210;2023-06-26T03:21:27;25;21;
80628;PMS5003;69983;42.370;-71.210;2023-06-26T03:23:27;21;17;
80628;PMS5003;69983;42.370;-71.210;2023-06-26T03:25:28;19;16;
80628;PMS5003;69983;42.370;-71.210;2023-06-26T03:27:28;16;15;
80628;PMS5003;69983;42.370;-71.210;2023-06-26T03:29:28;13;10;
80628;PMS5003;69983;42.370;-71.210;2023-06-26T03:31:29;11;7;
80628;PMS5003;69983;42.370;-71.210;2023-06-26T03:33:29;19;17;
80628;PMS5003;69983;42.370;-71.210;2023-06-26T03:35:31;18;14;
80628;PMS5003;69983;42.370;-71.210;2023-06-26T03:37:29;53;40;
80628;PMS5003;69983;42.370;-71.210;2023-06-26T03:39:30;166;121;
80628;PMS5003;69983;42.370;-71.210;2023-06-26T03:41:30;133;89;
80628;PMS5003;69983;42.370;-71.210;2023-06-26T03:43:31;142;88;
80628;PMS5003;69983;42.370;-71.210;2023-06-26T03:45:31;181;105;
80628;PMS5003;69983;42.370;-71.210;2023-06-26T03:47:31;243;161;
80628;PMS5003;69983;42.370;-71.210;2023-06-26T03:49:31;324;235;
80628;PMS5003;69983;42.370;-71.210;2023-06-26T03:51:31;313;220;
80628;PMS5003;69983;42.370;-71.210;2023-06-26T03:53:32;229;162;
80628;PMS5003;69983;42.370;-71.210;2023-06-26T03:55:32;215;150;
80628;PMS5003;69983;42.370;-71.210;2023-06-26T03:57:32;218;152;
80628;PMS5003;69983;42.370;-71.210;2023-06-26T03:59:32;133;94;
80628;PMS5003;69983;42.370;-71.210;2023-06-26T04:01:33;98;69;
80628;PMS5003;69983;42.370;-71.210;2023-06-26T04:03:33;71;54;
80628;PMS5003;69983;42.370;-71.210;2023-06-26T04:05:33;59;44;
80628;PMS5003;69983;42.370;-71.210;2023-06-26T04:07:33;162;144;
80628;PMS5003;69983;42.370;-71.210;2023-06-26T04:09:34;270;232;
80628;PMS5003;69983;42.370;-71.210;2023-06-26T04:11:34;173;149;
80628;PMS5003;69983;42.370;-71.210;2023-06-26T04:13:34;243;194;
80628;PMS5003;69983;42.370;-71.210;2023-06-26T04:15:35;144;119;
80628;PMS5003;69983;42.370;-71.210;2023-06-26T04:17:35;107;94;
80628;PMS5003;69983;42.370;-71.210;2023-06-26T04:19:35;118;104;
80628;PMS5003;69983;42.370;-71.210;2023-06-26T04:21:36;370;272;
80628;PMS5003;69983;42.370;-71.210;2023-06-26T04:23:36;340;241;
80628;PMS5003;69983;42.370;-71.210;2023-06-26T04:25:36;263;182;
80628;PMS5003;69983;42.370;-71.210;2023-06-26T04:27:37;222;158;
80628;PMS5003;69983;42.370;-71.210;2023-06-26T04:29:37;152;111;
80628;PMS5003;69983;42.370;-71.210;2023-06-26T04:31:38;143;98;
80628;PMS5003;69983;42.370;-71.210;2023-06-26T04:33:39;101;72;
80628;PMS5003;69983;42.370;-71.210;2023-06-26T04:35:40;113;68;
80628;PMS5003;69983;42.370;-71.210;2023-06-26T04:37:40;72;55;
80628;PMS5003;69983;42.370;-71.210;2023-06-26T04:39:40;325;281;
80628;PMS5003;69983;42.370;-71.210;2023-06-26T04:41:41;361;292;
80628;PMS5003;69983;42.370;-71.210;2023-06-26T04:43:41;341;286;
80628;PMS5003;69983;42.370;-71.210;2023-06-26T04:45:43;494;365;
80628;PMS5003;69983;42.370;-71.210;2023-06-26T04:47:43;320;233;
80628;PMS5003;69983;42.370;-71.210;2023-06-26T04:49:44;300;215;
80628;PMS5003;69983;42.370;-71.210;2023-06-26T04:51:44;283;191;
80628;PMS5003;69983;42.370;-71.210;2023-06-26T04:53:44;251;169;
80628;PMS5003;69983;42.370;-71.210;2023-06-26T04:55:45;243;158;
80628;PMS5003;69983;42.370;-71.210;2023-06-26T04:57:45;199;136;
80628;PMS5003;69983;42.370;-71.210;2023-06-26T04:59:46;129;91;
80628;PMS5003;69983;42.370;-71.210;2023-06-26T05:01:46;96;75;
80628;PMS5003;69983;42.370;-71.210;2023-06-26T05:03:47;317;236;
80628;PMS5003;69983;42.370;-71.210;2023-06-26T05:05:47;307;212;
80628;PMS5003;69983;42.370;-71.210;2023-06-26T05:07:48;299;193;
80628;PMS5003;69983;42.370;-71.210;2023-06-26T05:09:49;257;168;
80628;PMS5003;69983;42.370;-71.210;2023-06-26T05:11:49;226;139;
80628;PMS5003;69983;42.370;-71.210;2023-06-26T05:13:50;158;110;
80628;PMS5003;69983;42.370;-71.210;2023-06-26T05:15:51;253;149;
80628;PMS5003;69983;42.370;-71.210;2023-06-26T05:17:50;165;107;
80628;PMS5003;69983;42.370;-71.210;2023-06-26T05:19:51;146;102;
80628;PMS5003;69983;42.370;-71.210;2023-06-26T05:21:51;350;288;
80628;PMS5003;69983;42.370;-71.210;2023-06-26T05:23:52;389;283;
80628;PMS5003;69983;42.370;-71.210;2023-06-26T05:25:53;207;157;
80628;PMS5003;69983;42.370;-71.210;2023-06-26T05:27:53;239;179;
80628;PMS5003;69983;42.370;-71.210;2023-06-26T05:29:53;204;151;
80628;PMS5003;69983;42.370;-71.210;2023-06-26T05:31:53;169;130;
80628;PMS5003;69983;42.370;-71.210;2023-06-26T05:33:53;131;101;
80628;PMS5003;69983;42.370;-71.210;2023-06-26T05:35:54;125;88;
80628;PMS5003;69983;42.370;-71.210;2023-06-26T05:37:54;240;197;
80628;PMS5003;69983;42.370;-71.210;2023-06-26T05:39:54;327;278;
80628;PMS5003;69983;42.370;-71.210;2023-06-26T05:41:55;255;215;
80628;PMS5003;69983;42.370;-71.210;2023-06-26T05:43:55;194;171;
80628;PMS5003;69983;42.370;-71.210;2023-06-26T05:45:55;163;139;
80628;PMS5003;69983;42.370;-71.210;2023-06-26T05:47:56;142;117;
80628;PMS5003;69983;42.370;-71.210;2023-06-26T05:49:56;274;225;
80628;PMS5003;69983;42.370;-71.210;2023-06-26T05:51:57;253;208;
80628;PMS5003;69983;42.370;-71.210;2023-06-26T05:53:57;217;169;
80628;PMS5003;69983;42.370;-71.210;2023-06-26T05:55:58;313;249;
80628;PMS5003;69983;42.370;-71.210;2023-06-26T05:57:59;224;176;
80628;PMS5003;69983;42.370;-71.210;2023-06-26T05:59:59;173;141;
80628;PMS5003;69983;42.370;-71.210;2023-06-26T06:02:00;125;101;
80628;PMS5003;69983;42.370;-71.210;2023-06-26T06:04:00;104;80;
80628;PMS5003;69983;42.370;-71.210;2023-06-26T06:06:01;85;74;
80628;PMS5003;69983;42.370;-71.210;2023-06-26T06:08:01;351;304;
80628;PMS5003;69983;42.370;-71.210;2023-06-26T06:10:02;262;227;
80628;PMS5003;69983;42.370;-71.210;2023-06-26T06:12:02;200;172;
80628;PMS5003;69983;42.370;-71.210;2023-06-26T06:14:02;163;138;
80628;PMS5003;69983;42.370;-71.210;2023-06-26T06:16:03;118;107;
80628;PMS5003;69983;42.370;-71.210;2023-06-26T06:18:04;106;94;
80628;PMS5003;69983;42.370;-71.210;2023-06-26T06:20:04;90;71;
80628;PMS5003;69983;42.370;-71.210;2023-06-26T06:22:05;70;60;
80628;PMS5003;69983;42.370;-71.210;2023-06-26T06:24:05;55;46;
80628;PMS5003;69983;42.370;-71.210;2023-06-26T06:26:05;47;38;
80628;PMS5003;69983;42.370;-71.210;2023-06-26T06:28:06;45;40;
80628;PMS5003;69983;42.370;-71.210;2023-06-26T06:30:06;39;35;
80628;PMS5003;69983;42.370;-71.210;2023-06-26T06:32:07;28;28;
80628;PMS5003;69983;42.370;-71.210;2023-06-26T06:34:07;27;20;
80628;PMS5003;69983;42.370;-71.210;2023-06-26T06:36:07;27;22;
80628;PMS5003;69983;42.370;-71.210;2023-06-26T06:38:07;19;17;
80628;PMS5003;69983;42.370;-71.210;2023-06-26T06:40:09;15;13;
80628;PMS5003;69983;42.370;-71.210;2023-06-26T06:42:08;16;15;
80628;PMS5003;69983;42.370;-71.210;2023-06-26T06:44:09;13;10;
80628;PMS5003;69983;42.370;-71.210;2023-06-26T06:46:09;12;12;
80628;PMS5003;69983;42.370;-71.210;2023-06-26T06:48:09;12;10;
80628;PMS5003;69983;42.370;-71.210;2023-06-26T06:50:09;9;8;
80628;PMS5003;69983;42.370;-71.210;2023-06-26T06:52:09;6;6;
80628;PMS5003;69983;42.370;-71.210;2023-06-26T06:54:09;11;8;
80628;PMS5003;69983;42.370;-71.210;2023-06-26T06:56:09;4;4;
80628;PMS5003;69983;42.370;-71.210;2023-06-26T06:58:10;7;4;
80628;PMS5003;69983;42.370;-71.210;2023-06-26T07:00:10;9;4;
80628;PMS5003;69983;42.370;-71.210;2023-06-26T07:02:10;4;4;
80628;PMS5003;69983;42.370;-71.210;2023-06-26T07:04:10;3;3;
80628;PMS5003;69983;42.370;-71.210;2023-06-26T07:06:10;5;3;
80628;PMS5003;69983;42.370;-71.210;2023-06-26T07:08:10;3;3;
80628;PMS5003;69983;42.370;-71.210;2023-06-26T07:10:11;3;3;
80628;PMS5003;69983;42.370;-71.210;2023-06-26T07:12:11;2;2;
80628;PMS5003;69983;42.370;-71.210;2023-06-26T07:14:11;2;2;
80628;PMS5003;69983;42.370;-71.210;2023-06-26T07:16:11;2;0;
80628;PMS5003;69983;42.370;-71.210;2023-06-26T07:18:11;2;2;
80628;PMS5003;69983;42.370;-71.210;2023-06-26T07:20:11;1;1;
80628;PMS5003;69983;42.370;-71.210;2023-06-26T07:22:11;0;0;
80628;PMS5003;69983;42.370;-71.210;2023-06-26T07:24:11;1;1;
80628;PMS5003;69983;42.370;-71.210;2023-06-26T07:26:13;0;0;
80628;PMS5003;69983;42.370;-71.210;2023-06-26T07:28:12;3;1;
80628;PMS5003;69983;42.370;-71.210;2023-06-26T07:30:12;0;0;
80628;PMS5003;69983;42.370;-71.210;2023-06-26T07:32:12;1;1;
80628;PMS5003;69983;42.370;-71.210;2023-06-26T07:34:12;1;1;
80628;PMS5003;69983;42.370;-71.210;2023-06-26T07:36:12;0;0;
80628;PMS5003;69983;42.370;-71.210;2023-06-26T07:38:12;0;0;
80628;PMS5003;69983;42.370;-71.210;2023-06-26T07:40:12;0;0;
80628;PMS5003;69983;42.370;-71.210;2023-06-26T07:42:12;0;0;
80628;PMS5003;69983;42.370;-71.210;2023-06-26T07:44:12;1;0;
80628;PMS5003;69983;42.370;-71.210;2023-06-26T07:46:13;0;0;
80628;PMS5003;69983;42.370;-71.210;2023-06-26T07:48:13;1;0;
80628;PMS5003;69983;42.370;-71.210;2023-06-26T07:50:13;0;0;
80628;PMS5003;69983;42.370;-71.210;2023-06-26T07:52:14;0;0;
80628;PMS5003;69983;42.370;-71.210;2023-06-26T07:54:13;0;0;
80628;PMS5003;69983;42.370;-71.210;2023-06-26T07:56:13;0;0;
80628;PMS5003;69983;42.370;-71.210;2023-06-26T07:58:13;0;0;
80628;PMS5003;69983;42.370;-71.210;2023-06-26T08:00:14;0;0;
80628;PMS5003;69983;42.370;-71.210;2023-06-26T08:02:14;0;0;
80628;PMS5003;69983;42.370;-71.210;2023-06-26T08:04:13;0;0;
80628;PMS5003;69983;42.370;-71.210;2023-06-26T08:06:14;1;0;
80628;PMS5003;69983;42.370;-71.210;2023-06-26T08:08:14;0;0;
80628;PMS5003;69983;42.370;-71.210;2023-06-26T08:10:14;0;0;
80628;PMS5003;69983;42.370;-71.210;2023-06-26T08:12:14;0;0;
80628;PMS5003;69983;42.370;-71.210;2023-06-26T08:14:14;0;0;
80628;PMS5003;69983;42.370;-71.210;2023-06-26T08:16:14;0;0;
80628;PMS5003;69983;42.370;-71.210;2023-06-26T08:18:14;0;0;
80628;PMS5003;69983;42.370;-71.210;2023-06-26T08:20:14;0;0;
80628;PMS5003;69983;42.370;-71.210;2023-06-26T08:22:14;0;0;
80628;PMS5003;69983;42.370;-71.210;2023-06-26T08:24:14;0;0;
80628;PMS5003;69983;42.370;-71.210;2023-06-26T08:26:14;0;0;
80628;PMS5003;69983;42.370;-71.210;2023-06-26T08:28:15;0;0;
80628;PMS5003;69983;42.370;-71.210;2023-06-26T08:30:15;0;0;
80628;PMS5003;69983;42.370;-71.210;2023-06-26T08:32:15;0;0;
80628;PMS5003;69983;42.370;-71.210;2023-06-26T08:34:15;0;0;
80628;PMS5003;69983;42.370;-71.210;2023-06-26T08:36:15;0;0;
80628;PMS5003;69983;42.370;-71.210;2023-06-26T08:38:15;0;0;
80628;PMS5003;69983;42.370;-71.210;2023-06-26T08:40:16;0;0;
80628;PMS5003;69983;42.370;-71.210;2023-06-26T08:42:16;0;0;
80628;PMS5003;69983;42.370;-71.210;2023-06-26T08:44:15;0;0;
80628;PMS5003;69983;42.370;-71.210;2023-06-26T08:46:15;0;0;
80628;PMS5003;69983;42.370;-71.210;2023-06-26T08:48:15;0;0;
80628;PMS5003;69983;42.370;-71.210;2023-06-26T08:50:16;0;0;
80628;PMS5003;69983;42.370;-71.210;2023-06-26T08:52:17;0;0;
80628;PMS5003;69983;42.370;-71.210;2023-06-26T08:54:16;0;0;
80628;PMS5003;69983;42.370;-71.210;2023-06-26T08:56:17;0;0;
80628;PMS5003;69983;42.370;-71.210;2023-06-26T08:58:16;0;0;
80628;PMS5003;69983;42.370;-71.210;2023-06-26T09:00:16;0;0;
80628;PMS5003;69983;42.370;-71.210;2023-06-26T09:02:16;0;0;
80628;PMS5003;69983;42.370;-71.210;2023-06-26T09:04:16;0;0;
80628;PMS5003;69983;42.370;-71.210;2023-06-26T09:06:17;0;0;
80628;PMS5003;69983;42.370;-71.210;2023-06-26T09:08:16;0;0;
80628;PMS5003;69983;42.370;-71.210;2023-06-26T09:10:16;0;0;
80628;PMS5003;69983;42.370;-71.210;2023-06-26T09:12:17;0;0;
80628;PMS5003;69983;42.370;-71.210;2023-06-26T09:14:17;0;0;
80628;PMS5003;69983;42.370;-71.210;2023-06-26T09:16:17;0;0;
80628;PMS5003;69983;42.370;-71.210;2023-06-26T09:18:18;0;0;
80628;PMS5003;69983;42.370;-71.210;2023-06-26T09:20:17;0;0;
80628;PMS5003;69983;42.370;-71.210;2023-06-26T09:22:17;0;0;
80628;PMS5003;69983;42.370;-71.210;2023-06-26T09:24:17;0;0;
80628;PMS5003;69983;42.370;-71.210;2023-06-26T09:26:17;0;0;
80628;PMS5003;69983;42.370;-71.210;2023-06-26T09:28:18;0;0;
80628;PMS5003;69983;42.370;-71.210;2023-06-26T09:30:18;0;0;
80628;PMS5003;69983;42.370;-71.210;2023-06-26T09:32:18;0;0;
80628;PMS5003;69983;42.370;-71.210;2023-06-26T09:34:18;0;0;
80628;PMS5003;69983;42.370;-71.210;2023-06-26T09:36:19;0;0;
80628;PMS5003;69983;42.370;-71.210;2023-06-26T09:38:18;0;0;
80628;PMS5003;69983;42.370;-71.210;2023-06-26T09:40:18;0;0;
80628;PMS5003;69983;42.370;-71.210;2023-06-26T09:42:19;0;0;
80628;PMS5003;69983;42.370;-71.210;2023-06-26T09:44:18;0;0;
80628;PMS5003;69983;42.370;-71.210;2023-06-26T09:46:24;0;0;
80628;PMS5003;69983;42.370;-71.210;2023-06-26T09:48:19;0;0;
80628;PMS5003;69983;42.370;-71.210;2023-06-26T09:50:22;0;0;
80628;PMS5003;69983;42.370;-71.210;2023-06-26T09:52:19;0;0;
80628;PMS5003;69983;42.370;-71.210;2023-06-26T09:54:19;0;0;
80628;PMS5003;69983;42.370;-71.210;2023-06-26T09:56:19;0;0;
80628;PMS5003;69983;42.370;-71.210;2023-06-26T09:58:19;0;0;
80628;PMS5003;69983;42.370;-71.210;2023-06-26T10:00:19;0;0;
80628;PMS5003;69983;42.370;-71.210;2023-06-26T10:02:19;0;0;
80628;PMS5003;69983;42.370;-71.210;2023-06-26T10:04:19;0;0;
80628;PMS5003;69983;42.370;-71.210;2023-06-26T10:06:22;0;0;
80628;PMS5003;69983;42.370;-71.210;2023-06-26T10:08:20;0;0;
80628;PMS5003;69983;42.370;-71.210;2023-06-26T10:10:20;0;0;
80628;PMS5003;69983;42.370;-71.210;2023-06-26T10:12:22;0;0;
80628;PMS5003;69983;42.370;-71.210;2023-06-26T10:14:20;0;0;
80628;PMS5003;69983;42.370;-71.210;2023-06-26T10:16:21;0;0;
80628;PMS5003;69983;42.370;-71.210;2023-06-26T10:18:20;0;0;
80628;PMS5003;69983;42.370;-71.210;2023-06-26T10:20:20;0;0;
80628;PMS5003;69983;42.370;-71.210;2023-06-26T10:22:20;0;0;
80628;PMS5003;69983;42.370;-71.210;2023-06-26T10:24:20;0;0;
80628;PMS5003;69983;42.370;-71.210;2023-06-26T10:26:20;0;0;
80628;PMS5003;69983;42.370;-71.210;2023-06-26T10:28:21;0;0;
80628;PMS5003;69983;42.370;-71.210;2023-06-26T10:30:22;0;0;
80628;PMS5003;69983;42.370;-71.210;2023-06-26T10:32:22;0;0;
80628;PMS5003;69983;42.370;-71.210;2023-06-26T10:34:21;0;0;
80628;PMS5003;69983;42.370;-71.210;2023-06-26T10:36:26;0;0;
80628;PMS5003;69983;42.370;-71.210;2023-06-26T10:38:21;0;0;
80628;PMS5003;69983;42.370;-71.210;2023-06-26T10:40:21;0;0;
80628;PMS5003;69983;42.370;-71.210;2023-06-26T10:42:33;0;0;
80628;PMS5003;69983;42.370;-71.210;2023-06-26T10:44:21;0;0;
80628;PMS5003;69983;42.370;-71.210;2023-06-26T10:46:21;0;0;
80628;PMS5003;69983;42.370;-71.210;2023-06-26T10:48:21;0;0;
80628;PMS5003;69983;42.370;-71.210;2023-06-26T10:50:23;0;0;
80628;PMS5003;69983;42.370;-71.210;2023-06-26T10:52:21;0;0;
80628;PMS5003;69983;42.370;-71.210;2023-06-26T10:54:22;0;0;
80628;PMS5003;69983;42.370;-71.210;2023-06-26T10:56:22;0;0;
80628;PMS5003;69983;42.370;-71.210;2023-06-26T10:58:33;0;0;
80628;PMS5003;69983;42.370;-71.210;2023-06-26T11:00:22;0;0;
80628;PMS5003;69983;42.370;-71.210;2023-06-26T11:02:22;0;0;
80628;PMS5003;69983;42.370;-71.210;2023-06-26T11:04:37;0;0;
80628;PMS5003;69983;42.370;-71.210;2023-06-26T11:06:22;0;0;
80628;PMS5003;69983;42.370;-71.210;2023-06-26T11:08:22;0;0;
80628;PMS5003;69983;42.370;-71.210;2023-06-26T11:10:22;0;0;
80628;PMS5003;69983;42.370;-71.210;2023-06-26T11:12:36;0;0;
80628;PMS5003;69983;42.370;-71.210;2023-06-26T11:14:23;0;0;
80628;PMS5003;69983;42.370;-71.210;2023-06-26T11:16:23;0;0;
80628;PMS5003;69983;42.370;-71.210;2023-06-26T11:18:23;0;0;
80628;PMS5003;69983;42.370;-71.210;2023-06-26T11:20:23;0;0;
80628;PMS5003;69983;42.370;-71.210;2023-06-26T11:22:23;0;0;
80628;PMS5003;69983;42.370;-71.210;2023-06-26T11:24:23;0;0;
80628;PMS5003;69983;42.370;-71.210;2023-06-26T11:26:23;0;0;
80628;PMS5003;69983;42.370;-71.210;2023-06-26T11:28:23;0;0;
80628;PMS5003;69983;42.370;-71.210;2023-06-26T11:30:24;0;0;
80628;PMS5003;69983;42.370;-71.210;2023-06-26T11:32:25;0;0;
80628;PMS5003;69983;42.370;-71.210;2023-06-26T11:34:24;0;0;
80628;PMS5003;69983;42.370;-71.210;2023-06-26T11:36:24;0;0;
80628;PMS5003;69983;42.370;-71.210;2023-06-26T11:38:24;0;0;
80628;PMS5003;69983;42.370;-71.210;2023-06-26T11:40:24;0;0;
80628;PMS5003;69983;42.370;-71.210;2023-06-26T11:42:24;0;0;
80628;PMS5003;69983;42.370;-71.210;2023-06-26T11:44:24;0;0;
80628;PMS5003;69983;42.370;-71.210;2023-06-26T11:46:24;0;0;
80628;PMS5003;69983;42.370;-71.210;2023-06-26T11:48:25;0;0;
80628;PMS5003;69983;42.370;-71.210;2023-06-26T11:50:24;0;0;
80628;PMS5003;69983;42.370;-71.210;2023-06-26T11:52:24;0;0;
80628;PMS5003;69983;42.370;-71.210;2023-06-26T11:54:25;0;0;
80628;PMS5003;69983;42.370;-71.210;2023-06-26T11:56:24;0;0;
80628;PMS5003;69983;42.370;-71.210;2023-06-26T11:58:24;0;0;
80628;PMS5003;69983;42.370;-71.210;2023-06-26T12:00:25;0;0;
80628;PMS5003;69983;42.370;-71.210;2023-06-26T12:02:25;0;0;
80628;PMS5003;69983;42.370;-71.210;2023-06-26T12:04:25;0;0;
80628;PMS5003;69983;42.370;-71.210;2023-06-26T12:06:25;0;0;
80628;PMS5003;69983;42.370;-71.210;2023-06-26T12:08:25;0;0;
80628;PMS5003;69983;42.370;-71.210;2023-06-26T12:10:25;0;0;
80628;PMS5003;69983;42.370;-71.210;2023-06-26T12:12:25;0;0;
80628;PMS5003;69983;42.370;-71.210;2023-06-26T12:14:26;0;0;
80628;PMS5003;69983;42.370;-71.210;2023-06-26T12:16:27;0;0;
80628;PMS5003;69983;42.370;-71.210;2023-06-26T12:18:25;0;0;
80628;PMS5003;69983;42.370;-71.210;2023-06-26T12:20:26;0;0;
80628;PMS5003;69983;42.370;-71.210;2023-06-26T12:22:26;0;0;
80628;PMS5003;69983;42.370;-71.210;2023-06-26T12:24:26;0;0;
80628;PMS5003;69983;42.370;-71.210;2023-06-26T12:26:26;0;0;
80628;PMS5003;69983;42.370;-71.210;2023-06-26T12:28:26;0;0;
80628;PMS5003;69983;42.370;-71.210;2023-06-26T12:30:26;0;0;
80628;PMS5003;69983;42.370;-71.210;2023-06-26T12:32:26;0;0;
80628;PMS5003;69983;42.370;-71.210;2023-06-26T12:34:27;0;0;
80628;PMS5003;69983;42.370;-71.210;2023-06-26T12:36:26;0;0;
80628;PMS5003;69983;42.370;-71.210;2023-06-26T12:38:32;0;0;
80628;PMS5003;69983;42.370;-71.210;2023-06-26T12:40:27;0;0;
80628;PMS5003;69983;42.370;-71.210;2023-06-26T12:42:27;0;0;
80628;PMS5003;69983;42.370;-71.210;2023-06-26T12:44:27;0;0;
80628;PMS5003;69983;42.370;-71.210;2023-06-26T12:46:34;0;0;
80628;PMS5003;69983;42.370;-71.210;2023-06-26T12:48:37;0;0;
80628;PMS5003;69983;42.370;-71.210;2023-06-26T12:50:27;0;0;
80628;PMS5003;69983;42.370;-71.210;2023-06-26T12:52:27;0;0;
80628;PMS5003;69983;42.370;-71.210;2023-06-26T12:54:27;0;0;
80628;PMS5003;69983;42.370;-71.210;2023-06-26T12:56:27;0;0;
80628;PMS5003;69983;42.370;-71.210;2023-06-26T12:58:28;0;0;